sensor_id;sensor_type;location;lat;lon;timestamp;P1;durP1;ratioP1;P2;durP2;ratioP2
10839;SDS011;5473;42.706;23.328;2022-10-17T00:02:09;0.60;;;0.60;;
10839;SDS011;5473;42.706;23.328;2022-10-17T00:04:36;0.50;;;0.50;;
10839;SDS011;5473;42.706;23.328;2022-10-17T00:07:03;0.57;;;0.57;;
10839;SDS011;5473;42.706;23.328;2022-10-17T00:09:31;0.50;;;0.50;;
10839;SDS011;5473;42.706;23.328;2022-10-17T00:11:57;0.50;;;0.50;;
10839;SDS011;5473;42.706;23.328;2022-10-17T00:14:26;0.50;;;0.50;;
10839;SDS011;5473;42.706;23.328;2022-10-17T00:16:53;0.50;;;0.50;;
10839;SDS011;5473;42.706;23.328;2022-10-17T00:19:20;0.40;;;0.40;;
10839;SDS011;5473;42.706;23.328;2022-10-17T00:21:47;0.50;;;0.50;;
10839;SDS011;5473;42.706;23.328;2022-10-17T00:24:14;0.30;;;0.30;;
10839;SDS011;5473;42.706;23.328;2022-10-17T00:26:43;0.40;;;0.40;;
10839;SDS011;5473;42.706;23.328;2022-10-17T00:29:09;0.57;;;0.57;;
10839;SDS011;5473;42.706;23.328;2022-10-17T00:31:36;0.50;;;0.50;;
10839;SDS011;5473;42.706;23.328;2022-10-17T00:34:03;0.50;;;0.50;;
10839;SDS011;5473;42.706;23.328;2022-10-17T00:36:29;0.57;;;0.57;;
10839;SDS011;5473;42.706;23.328;2022-10-17T00:38:57;0.60;;;0.60;;
10839;SDS011;5473;42.706;23.328;2022-10-17T00:41:25;0.50;;;0.50;;
10839;SDS011;5473;42.706;23.328;2022-10-17T00:43:56;0.50;;;0.50;;
10839;SDS011;5473;42.706;23.328;2022-10-17T00:46:25;0.47;;;0.47;;
10839;SDS011;5473;42.706;23.328;2022-10-17T00:48:57;0.50;;;0.50;;
10839;SDS011;5473;42.706;23.328;2022-10-17T00:51:27;0.50;;;0.50;;
10839;SDS011;5473;42.706;23.328;2022-10-17T00:53:59;0.50;;;0.50;;
10839;SDS011;5473;42.706;23.328;2022-10-17T00:56:28;0.40;;;0.40;;
10839;SDS011;5473;42.706;23.328;2022-10-17T00:58:57;0.50;;;0.50;;
10839;SDS011;5473;42.706;23.328;2022-10-17T01:01:24;0.50;;;0.50;;
10839;SDS011;5473;42.706;23.328;2022-10-17T01:03:51;0.50;;;0.50;;
10839;SDS011;5473;42.706;23.328;2022-10-17T01:06:18;0.60;;;0.60;;
10839;SDS011;5473;42.706;23.328;2022-10-17T01:08:44;0.50;;;0.50;;
10839;SDS011;5473;42.706;23.328;2022-10-17T01:11:19;0.50;;;0.50;;
10839;SDS011;5473;42.706;23.328;2022-10-17T01:13:55;0.50;;;0.50;;
10839;SDS011;5473;42.706;23.328;2022-10-17T01:16:31;0.60;;;0.60;;
10839;SDS011;5473;42.706;23.328;2022-10-17T01:19:12;0.60;;;0.60;;
10839;SDS011;5473;42.706;23.328;2022-10-17T01:21:59;0.60;;;0.60;;
10839;SDS011;5473;42.706;23.328;2022-10-17T01:24:47;0.50;;;0.50;;
10839;SDS011;5473;42.706;23.328;2022-10-17T01:27:25;0.50;;;0.50;;
10839;SDS011;5473;42.706;23.328;2022-10-17T01:30:11;0.60;;;0.60;;
10839;SDS011;5473;42.706;23.328;2022-10-17T01:32:55;0.50;;;0.50;;
10839;SDS011;5473;42.706;23.328;2022-10-17T01:35:30;0.40;;;0.40;;
10839;SDS011;5473;42.706;23.328;2022-10-17T01:38:04;0.40;;;0.40;;
10839;SDS011;5473;42.706;23.328;2022-10-17T01:40:35;0.40;;;0.40;;
10839;SDS011;5473;42.706;23.328;2022-10-17T01:43:08;0.50;;;0.50;;
10839;SDS011;5473;42.706;23.328;2022-10-17T01:45:42;0.50;;;0.50;;
10839;SDS011;5473;42.706;23.328;2022-10-17T01:48:16;0.50;;;0.50;;
10839;SDS011;5473;42.706;23.328;2022-10-17T01:50:47;0.50;;;0.50;;
10839;SDS011;5473;42.706;23.328;2022-10-17T01:53:18;0.57;;;0.57;;
10839;SDS011;5473;42.706;23.328;2022-10-17T01:55:47;0.50;;;0.50;;
10839;SDS011;5473;42.706;23.328;2022-10-17T01:58:18;0.50;;;0.50;;
10839;SDS011;5473;42.706;23.328;2022-10-17T02:00:49;0.50;;;0.50;;
10839;SDS011;5473;42.706;23.328;2022-10-17T02:03:20;0.50;;;0.50;;
10839;SDS011;5473;42.706;23.328;2022-10-17T02:05:48;0.57;;;0.57;;
10839;SDS011;5473;42.706;23.328;2022-10-17T02:08:23;0.40;;;0.40;;
10839;SDS011;5473;42.706;23.328;2022-10-17T02:10:53;0.50;;;0.50;;
10839;SDS011;5473;42.706;23.328;2022-10-17T02:13:26;0.50;;;0.50;;
10839;SDS011;5473;42.706;23.328;2022-10-17T02:16:11;0.50;;;0.50;;
10839;SDS011;5473;42.706;23.328;2022-10-17T02:19:03;0.50;;;0.50;;
10839;SDS011;5473;42.706;23.328;2022-10-17T02:21:39;0.60;;;0.60;;
10839;SDS011;5473;42.706;23.328;2022-10-17T02:24:17;0.50;;;0.50;;
10839;SDS011;5473;42.706;23.328;2022-10-17T02:26:51;0.60;;;0.60;;
10839;SDS011;5473;42.706;23.328;2022-10-17T02:29:24;0.53;;;0.53;;
10839;SDS011;5473;42.706;23.328;2022-10-17T02:31:57;0.57;;;0.57;;
10839;SDS011;5473;42.706;23.328;2022-10-17T02:34:32;0.40;;;0.40;;
10839;SDS011;5473;42.706;23.328;2022-10-17T02:37:06;0.60;;;0.60;;
10839;SDS011;5473;42.706;23.328;2022-10-17T02:39:35;0.50;;;0.50;;
10839;SDS011;5473;42.706;23.328;2022-10-17T02:42:06;0.40;;;0.40;;
10839;SDS011;5473;42.706;23.328;2022-10-17T02:44:36;0.50;;;0.50;;
10839;SDS011;5473;42.706;23.328;2022-10-17T02:47:06;0.50;;;0.50;;
10839;SDS011;5473;42.706;23.328;2022-10-17T02:49:39;0.57;;;0.57;;
10839;SDS011;5473;42.706;23.328;2022-10-17T02:52:13;0.50;;;0.50;;
10839;SDS011;5473;42.706;23.328;2022-10-17T02:54:46;0.50;;;0.50;;
10839;SDS011;5473;42.706;23.328;2022-10-17T02:57:21;0.57;;;0.57;;
10839;SDS011;5473;42.706;23.328;2022-10-17T02:59:52;0.40;;;0.40;;
10839;SDS011;5473;42.706;23.328;2022-10-17T03:02:20;0.43;;;0.43;;
10839;SDS011;5473;42.706;23.328;2022-10-17T03:04:48;0.60;;;0.60;;
10839;SDS011;5473;42.706;23.328;2022-10-17T03:07:15;0.43;;;0.43;;
10839;SDS011;5473;42.706;23.328;2022-10-17T03:09:42;0.43;;;0.43;;
10839;SDS011;5473;42.706;23.328;2022-10-17T03:12:09;0.50;;;0.50;;
10839;SDS011;5473;42.706;23.328;2022-10-17T03:14:35;0.50;;;0.50;;
10839;SDS011;5473;42.706;23.328;2022-10-17T03:17:02;0.50;;;0.50;;
10839;SDS011;5473;42.706;23.328;2022-10-17T03:19:29;0.50;;;0.50;;
10839;SDS011;5473;42.706;23.328;2022-10-17T03:21:59;0.50;;;0.50;;
10839;SDS011;5473;42.706;23.328;2022-10-17T03:24:25;0.60;;;0.60;;
10839;SDS011;5473;42.706;23.328;2022-10-17T03:26:52;0.60;;;0.60;;
10839;SDS011;5473;42.706;23.328;2022-10-17T03:29:19;0.60;;;0.60;;
10839;SDS011;5473;42.706;23.328;2022-10-17T03:31:46;0.50;;;0.50;;
10839;SDS011;5473;42.706;23.328;2022-10-17T03:34:12;0.40;;;0.40;;
10839;SDS011;5473;42.706;23.328;2022-10-17T03:36:40;0.50;;;0.50;;
10839;SDS011;5473;42.706;23.328;2022-10-17T03:39:11;0.50;;;0.50;;
10839;SDS011;5473;42.706;23.328;2022-10-17T03:41:38;0.60;;;0.60;;
10839;SDS011;5473;42.706;23.328;2022-10-17T03:44:05;0.60;;;0.60;;
10839;SDS011;5473;42.706;23.328;2022-10-17T03:46:32;0.53;;;0.53;;
10839;SDS011;5473;42.706;23.328;2022-10-17T03:48:58;0.50;;;0.50;;
10839;SDS011;5473;42.706;23.328;2022-10-17T03:51:25;0.50;;;0.50;;
10839;SDS011;5473;42.706;23.328;2022-10-17T03:53:52;0.60;;;0.60;;
10839;SDS011;5473;42.706;23.328;2022-10-17T03:56:21;0.50;;;0.50;;
10839;SDS011;5473;42.706;23.328;2022-10-17T03:58:48;0.60;;;0.60;;
10839;SDS011;5473;42.706;23.328;2022-10-17T04:01:16;0.60;;;0.60;;
10839;SDS011;5473;42.706;23.328;2022-10-17T04:03:47;0.60;;;0.60;;
10839;SDS011;5473;42.706;23.328;2022-10-17T04:06:14;0.60;;;0.60;;
10839;SDS011;5473;42.706;23.328;2022-10-17T04:08:42;0.50;;;0.50;;
10839;SDS011;5473;42.706;23.328;2022-10-17T04:11:10;0.60;;;0.60;;
10839;SDS011;5473;42.706;23.328;2022-10-17T04:13:41;0.60;;;0.60;;
10839;SDS011;5473;42.706;23.328;2022-10-17T04:16:09;0.60;;;0.60;;
10839;SDS011;5473;42.706;23.328;2022-10-17T04:18:39;0.60;;;0.60;;
10839;SDS011;5473;42.706;23.328;2022-10-17T04:21:07;0.50;;;0.50;;
10839;SDS011;5473;42.706;23.328;2022-10-17T04:23:34;0.60;;;0.60;;
10839;SDS011;5473;42.706;23.328;2022-10-17T04:26:01;0.53;;;0.53;;
10839;SDS011;5473;42.706;23.328;2022-10-17T04:28:31;0.60;;;0.60;;
10839;SDS011;5473;42.706;23.328;2022-10-17T04:31:00;0.50;;;0.50;;
10839;SDS011;5473;42.706;23.328;2022-10-17T04:33:29;0.60;;;0.60;;
10839;SDS011;5473;42.706;23.328;2022-10-17T04:35:57;0.60;;;0.60;;
10839;SDS011;5473;42.706;23.328;2022-10-17T04:38:25;0.50;;;0.50;;
10839;SDS011;5473;42.706;23.328;2022-10-17T04:40:52;0.50;;;0.50;;
10839;SDS011;5473;42.706;23.328;2022-10-17T04:43:19;0.50;;;0.50;;
10839;SDS011;5473;42.706;23.328;2022-10-17T04:45:46;0.50;;;0.50;;
10839;SDS011;5473;42.706;23.328;2022-10-17T04:48:14;0.47;;;0.47;;
10839;SDS011;5473;42.706;23.328;2022-10-17T04:50:51;0.50;;;0.50;;
10839;SDS011;5473;42.706;23.328;2022-10-17T04:53:18;0.50;;;0.50;;
10839;SDS011;5473;42.706;23.328;2022-10-17T04:55:45;0.60;;;0.60;;
10839;SDS011;5473;42.706;23.328;2022-10-17T04:58:12;0.50;;;0.50;;
10839;SDS011;5473;42.706;23.328;2022-10-17T05:00:39;0.60;;;0.60;;
10839;SDS011;5473;42.706;23.328;2022-10-17T05:03:06;0.50;;;0.50;;
10839;SDS011;5473;42.706;23.328;2022-10-17T05:05:35;0.60;;;0.60;;
10839;SDS011;5473;42.706;23.328;2022-10-17T05:08:02;0.50;;;0.50;;
10839;SDS011;5473;42.706;23.328;2022-10-17T05:10:29;0.50;;;0.50;;
10839;SDS011;5473;42.706;23.328;2022-10-17T05:12:56;0.50;;;0.50;;
10839;SDS011;5473;42.706;23.328;2022-10-17T05:15:23;0.50;;;0.50;;
10839;SDS011;5473;42.706;23.328;2022-10-17T05:17:52;0.40;;;0.40;;
10839;SDS011;5473;42.706;23.328;2022-10-17T05:20:20;0.40;;;0.40;;
10839;SDS011;5473;42.706;23.328;2022-10-17T05:22:48;0.47;;;0.47;;
10839;SDS011;5473;42.706;23.328;2022-10-17T05:25:15;0.60;;;0.60;;
10839;SDS011;5473;42.706;23.328;2022-10-17T05:27:42;0.40;;;0.40;;
10839;SDS011;5473;42.706;23.328;2022-10-17T05:30:09;0.50;;;0.50;;
10839;SDS011;5473;42.706;23.328;2022-10-17T05:32:36;0.30;;;0.30;;
10839;SDS011;5473;42.706;23.328;2022-10-17T05:35:03;0.40;;;0.40;;
10839;SDS011;5473;42.706;23.328;2022-10-17T05:37:32;0.30;;;0.30;;
10839;SDS011;5473;42.706;23.328;2022-10-17T05:40:00;0.30;;;0.30;;
10839;SDS011;5473;42.706;23.328;2022-10-17T05:42:27;0.23;;;0.23;;
10839;SDS011;5473;42.706;23.328;2022-10-17T05:44:54;0.30;;;0.30;;
10839;SDS011;5473;42.706;23.328;2022-10-17T05:47:20;0.30;;;0.30;;
10839;SDS011;5473;42.706;23.328;2022-10-17T05:49:47;0.30;;;0.30;;
10839;SDS011;5473;42.706;23.328;2022-10-17T05:52:14;0.30;;;0.30;;
10839;SDS011;5473;42.706;23.328;2022-10-17T05:54:40;0.40;;;0.40;;
10839;SDS011;5473;42.706;23.328;2022-10-17T05:57:09;0.30;;;0.30;;
10839;SDS011;5473;42.706;23.328;2022-10-17T05:59:35;0.40;;;0.40;;
10839;SDS011;5473;42.706;23.328;2022-10-17T06:02:02;0.30;;;0.30;;
10839;SDS011;5473;42.706;23.328;2022-10-17T06:04:29;0.30;;;0.30;;
10839;SDS011;5473;42.706;23.328;2022-10-17T06:06:55;0.30;;;0.30;;
10839;SDS011;5473;42.706;23.328;2022-10-17T06:09:22;0.40;;;0.40;;
10839;SDS011;5473;42.706;23.328;2022-10-17T06:11:49;0.40;;;0.40;;
10839;SDS011;5473;42.706;23.328;2022-10-17T06:14:17;0.30;;;0.30;;
10839;SDS011;5473;42.706;23.328;2022-10-17T06:16:44;0.33;;;0.33;;
10839;SDS011;5473;42.706;23.328;2022-10-17T06:19:11;0.40;;;0.40;;
10839;SDS011;5473;42.706;23.328;2022-10-17T06:21:38;0.30;;;0.30;;
10839;SDS011;5473;42.706;23.328;2022-10-17T06:24:04;0.27;;;0.27;;
10839;SDS011;5473;42.706;23.328;2022-10-17T06:26:31;0.20;;;0.20;;
10839;SDS011;5473;42.706;23.328;2022-10-17T06:28:58;0.20;;;0.20;;
10839;SDS011;5473;42.706;23.328;2022-10-17T06:31:26;0.20;;;0.20;;
10839;SDS011;5473;42.706;23.328;2022-10-17T06:33:53;0.20;;;0.20;;
10839;SDS011;5473;42.706;23.328;2022-10-17T06:36:20;0.30;;;0.30;;
10839;SDS011;5473;42.706;23.328;2022-10-17T06:38:47;0.30;;;0.30;;
10839;SDS011;5473;42.706;23.328;2022-10-17T06:41:14;0.20;;;0.20;;
10839;SDS011;5473;42.706;23.328;2022-10-17T06:43:44;0.20;;;0.20;;
10839;SDS011;5473;42.706;23.328;2022-10-17T06:46:12;0.20;;;0.20;;
10839;SDS011;5473;42.706;23.328;2022-10-17T06:48:41;0.20;;;0.20;;
10839;SDS011;5473;42.706;23.328;2022-10-17T06:51:08;0.20;;;0.20;;
10839;SDS011;5473;42.706;23.328;2022-10-17T06:53:35;0.20;;;0.20;;
10839;SDS011;5473;42.706;23.328;2022-10-17T06:56:04;0.10;;;0.10;;
10839;SDS011;5473;42.706;23.328;2022-10-17T06:58:32;0.10;;;0.10;;
10839;SDS011;5473;42.706;23.328;2022-10-17T07:01:00;0.10;;;0.10;;
10839;SDS011;5473;42.706;23.328;2022-10-17T07:03:28;0.10;;;0.10;;
10839;SDS011;5473;42.706;23.328;2022-10-17T07:05:56;0.10;;;0.10;;
10839;SDS011;5473;42.706;23.328;2022-10-17T07:08:24;0.10;;;0.10;;
10839;SDS011;5473;42.706;23.328;2022-10-17T07:10:51;0.10;;;0.10;;
10839;SDS011;5473;42.706;23.328;2022-10-17T07:13:18;0.10;;;0.10;;
10839;SDS011;5473;42.706;23.328;2022-10-17T07:15:45;0.10;;;0.10;;
10839;SDS011;5473;42.706;23.328;2022-10-17T07:18:12;0.10;;;0.10;;
10839;SDS011;5473;42.706;23.328;2022-10-17T07:20:39;0.10;;;0.10;;
10839;SDS011;5473;42.706;23.328;2022-10-17T07:23:08;0.10;;;0.10;;
10839;SDS011;5473;42.706;23.328;2022-10-17T07:25:35;0.10;;;0.10;;
10839;SDS011;5473;42.706;23.328;2022-10-17T07:28:02;0.10;;;0.10;;
10839;SDS011;5473;42.706;23.328;2022-10-17T07:30:29;0.10;;;0.10;;
10839;SDS011;5473;42.706;23.328;2022-10-17T07:32:56;0.10;;;0.10;;
10839;SDS011;5473;42.706;23.328;2022-10-17T07:35:23;0.10;;;0.10;;
10839;SDS011;5473;42.706;23.328;2022-10-17T07:37:49;0.10;;;0.10;;
10839;SDS011;5473;42.706;23.328;2022-10-17T07:40:20;0.10;;;0.10;;
10839;SDS011;5473;42.706;23.328;2022-10-17T07:42:47;0.10;;;0.10;;
10839;SDS011;5473;42.706;23.328;2022-10-17T07:45:14;0.10;;;0.10;;
10839;SDS011;5473;42.706;23.328;2022-10-17T07:47:44;0.10;;;0.10;;
10839;SDS011;5473;42.706;23.328;2022-10-17T07:50:10;0.10;;;0.10;;
10839;SDS011;5473;42.706;23.328;2022-10-17T07:52:37;0.10;;;0.10;;
10839;SDS011;5473;42.706;23.328;2022-10-17T07:55:04;0.10;;;0.10;;
10839;SDS011;5473;42.706;23.328;2022-10-17T07:57:33;0.10;;;0.10;;
10839;SDS011;5473;42.706;23.328;2022-10-17T08:00:00;0.10;;;0.10;;
10839;SDS011;5473;42.706;23.328;2022-10-17T08:02:27;0.10;;;0.10;;
10839;SDS011;5473;42.706;23.328;2022-10-17T08:04:54;0.10;;;0.10;;
10839;SDS011;5473;42.706;23.328;2022-10-17T08:07:21;0.10;;;0.10;;
10839;SDS011;5473;42.706;23.328;2022-10-17T08:09:47;0.10;;;0.10;;
10839;SDS011;5473;42.706;23.328;2022-10-17T08:12:14;0.10;;;0.10;;
10839;SDS011;5473;42.706;23.328;2022-10-17T08:14:43;0.10;;;0.10;;
10839;SDS011;5473;42.706;23.328;2022-10-17T08:17:09;0.00;;;0.00;;
10839;SDS011;5473;42.706;23.328;2022-10-17T08:19:37;0.00;;;0.00;;
10839;SDS011;5473;42.706;23.328;2022-10-17T08:22:04;0.00;;;0.00;;
10839;SDS011;5473;42.706;23.328;2022-10-17T08:24:34;0.00;;;0.00;;
10839;SDS011;5473;42.706;23.328;2022-10-17T08:27:00;0.00;;;0.00;;
10839;SDS011;5473;42.706;23.328;2022-10-17T08:29:32;0.10;;;0.10;;
10839;SDS011;5473;42.706;23.328;2022-10-17T08:32:00;0.00;;;0.00;;
10839;SDS011;5473;42.706;23.328;2022-10-17T08:34:27;0.00;;;0.00;;
10839;SDS011;5473;42.706;23.328;2022-10-17T08:36:54;0.00;;;0.00;;
10839;SDS011;5473;42.706;23.328;2022-10-17T08:39:21;0.10;;;0.10;;
10839;SDS011;5473;42.706;23.328;2022-10-17T08:41:51;0.03;;;0.03;;
10839;SDS011;5473;42.706;23.328;2022-10-17T08:44:38;0.00;;;0.00;;
10839;SDS011;5473;42.706;23.328;2022-10-17T08:47:19;0.10;;;0.10;;
10839;SDS011;5473;42.706;23.328;2022-10-17T08:49:52;0.00;;;0.00;;
10839;SDS011;5473;42.706;23.328;2022-10-17T08:52:24;0.00;;;0.00;;
10839;SDS011;5473;42.706;23.328;2022-10-17T08:54:58;0.00;;;0.00;;
10839;SDS011;5473;42.706;23.328;2022-10-17T08:57:25;0.00;;;0.00;;
10839;SDS011;5473;42.706;23.328;2022-10-17T08:59:52;0.00;;;0.00;;
10839;SDS011;5473;42.706;23.328;2022-10-17T09:02:31;0.00;;;0.00;;
10839;SDS011;5473;42.706;23.328;2022-10-17T09:08:05;0.00;;;0.00;;
10839;SDS011;5473;42.706;23.328;2022-10-17T09:10:42;0.10;;;0.10;;
10839;SDS011;5473;42.706;23.328;2022-10-17T09:13:21;0.10;;;0.10;;
10839;SDS011;5473;42.706;23.328;2022-10-17T09:16:01;0.00;;;0.00;;
10839;SDS011;5473;42.706;23.328;2022-10-17T09:18:38;0.00;;;0.00;;
10839;SDS011;5473;42.706;23.328;2022-10-17T09:21:11;0.00;;;0.00;;
10839;SDS011;5473;42.706;23.328;2022-10-17T09:23:45;0.00;;;0.00;;
10839;SDS011;5473;42.706;23.328;2022-10-17T09:26:15;0.00;;;0.00;;
10839;SDS011;5473;42.706;23.328;2022-10-17T09:28:42;0.03;;;0.03;;
10839;SDS011;5473;42.706;23.328;2022-10-17T09:31:11;0.00;;;0.00;;
10839;SDS011;5473;42.706;23.328;2022-10-17T09:33:45;0.10;;;0.10;;
10839;SDS011;5473;42.706;23.328;2022-10-17T09:36:15;0.00;;;0.00;;
10839;SDS011;5473;42.706;23.328;2022-10-17T09:38:46;0.00;;;0.00;;
10839;SDS011;5473;42.706;23.328;2022-10-17T09:41:18;0.00;;;0.00;;
10839;SDS011;5473;42.706;23.328;2022-10-17T09:43:46;0.00;;;0.00;;
10839;SDS011;5473;42.706;23.328;2022-10-17T09:46:16;0.00;;;0.00;;
10839;SDS011;5473;42.706;23.328;2022-10-17T09:48:49;0.00;;;0.00;;
10839;SDS011;5473;42.706;23.328;2022-10-17T09:51:19;0.10;;;0.10;;
10839;SDS011;5473;42.706;23.328;2022-10-17T09:53:47;0.00;;;0.00;;
10839;SDS011;5473;42.706;23.328;2022-10-17T09:56:18;0.10;;;0.10;;
10839;SDS011;5473;42.706;23.328;2022-10-17T09:58:46;0.10;;;0.10;;
10839;SDS011;5473;42.706;23.328;2022-10-17T10:01:18;0.10;;;0.10;;
10839;SDS011;5473;42.706;23.328;2022-10-17T10:03:47;0.10;;;0.10;;
10839;SDS011;5473;42.706;23.328;2022-10-17T10:06:33;0.10;;;0.10;;
10839;SDS011;5473;42.706;23.328;2022-10-17T10:09:03;0.10;;;0.10;;
10839;SDS011;5473;42.706;23.328;2022-10-17T10:11:44;0.10;;;0.10;;
10839;SDS011;5473;42.706;23.328;2022-10-17T10:14:14;0.10;;;0.10;;
10839;SDS011;5473;42.706;23.328;2022-10-17T10:16:47;0.10;;;0.10;;
10839;SDS011;5473;42.706;23.328;2022-10-17T10:19:24;0.10;;;0.10;;
10839;SDS011;5473;42.706;23.328;2022-10-17T10:21:57;0.10;;;0.10;;
10839;SDS011;5473;42.706;23.328;2022-10-17T10:24:26;0.07;;;0.07;;
10839;SDS011;5473;42.706;23.328;2022-10-17T10:26:53;0.10;;;0.10;;
10839;SDS011;5473;42.706;23.328;2022-10-17T10:29:27;0.10;;;0.10;;
10839;SDS011;5473;42.706;23.328;2022-10-17T10:31:58;0.07;;;0.07;;
10839;SDS011;5473;42.706;23.328;2022-10-17T10:34:35;0.10;;;0.10;;
10839;SDS011;5473;42.706;23.328;2022-10-17T10:50:43;0.10;;;0.10;;
10839;SDS011;5473;42.706;23.328;2022-10-17T10:53:16;0.10;;;0.10;;
10839;SDS011;5473;42.706;23.328;2022-10-17T10:55:58;0.10;;;0.10;;
10839;SDS011;5473;42.706;23.328;2022-10-17T10:58:31;0.10;;;0.10;;
10839;SDS011;5473;42.706;23.328;2022-10-17T11:01:04;0.10;;;0.10;;
10839;SDS011;5473;42.706;23.328;2022-10-17T11:03:38;0.03;;;0.03;;
10839;SDS011;5473;42.706;23.328;2022-10-17T11:06:12;0.00;;;0.00;;
10839;SDS011;5473;42.706;23.328;2022-10-17T11:08:43;0.10;;;0.10;;
10839;SDS011;5473;42.706;23.328;2022-10-17T11:11:16;0.00;;;0.00;;
10839;SDS011;5473;42.706;23.328;2022-10-17T11:13:52;0.00;;;0.00;;
10839;SDS011;5473;42.706;23.328;2022-10-17T11:16:26;0.10;;;0.10;;
10839;SDS011;5473;42.706;23.328;2022-10-17T11:19:03;0.10;;;0.10;;
10839;SDS011;5473;42.706;23.328;2022-10-17T11:21:40;0.10;;;0.10;;
10839;SDS011;5473;42.706;23.328;2022-10-17T11:24:14;0.07;;;0.07;;
10839;SDS011;5473;42.706;23.328;2022-10-17T11:26:48;0.00;;;0.00;;
10839;SDS011;5473;42.706;23.328;2022-10-17T11:29:20;0.10;;;0.10;;
10839;SDS011;5473;42.706;23.328;2022-10-17T11:31:50;0.10;;;0.10;;
10839;SDS011;5473;42.706;23.328;2022-10-17T11:57:55;0.10;;;0.10;;
10839;SDS011;5473;42.706;23.328;2022-10-17T12:00:36;0.00;;;0.00;;
10839;SDS011;5473;42.706;23.328;2022-10-17T12:03:17;0.10;;;0.10;;
10839;SDS011;5473;42.706;23.328;2022-10-17T12:05:53;0.10;;;0.10;;
10839;SDS011;5473;42.706;23.328;2022-10-17T12:08:35;0.10;;;0.10;;
10839;SDS011;5473;42.706;23.328;2022-10-17T12:11:12;0.10;;;0.10;;
10839;SDS011;5473;42.706;23.328;2022-10-17T12:13:50;0.10;;;0.10;;
10839;SDS011;5473;42.706;23.328;2022-10-17T12:19:23;0.10;;;0.10;;
10839;SDS011;5473;42.706;23.328;2022-10-17T12:22:03;0.10;;;0.10;;
10839;SDS011;5473;42.706;23.328;2022-10-17T12:24:38;0.10;;;0.10;;
10839;SDS011;5473;42.706;23.328;2022-10-17T12:30:22;0.10;;;0.10;;
10839;SDS011;5473;42.706;23.328;2022-10-17T12:32:52;0.10;;;0.10;;
10839;SDS011;5473;42.706;23.328;2022-10-17T12:35:30;0.10;;;0.10;;
10839;SDS011;5473;42.706;23.328;2022-10-17T12:40:56;0.10;;;0.10;;
10839;SDS011;5473;42.706;23.328;2022-10-17T12:49:42;0.10;;;0.10;;
10839;SDS011;5473;42.706;23.328;2022-10-17T12:52:14;0.10;;;0.10;;
10839;SDS011;5473;42.706;23.328;2022-10-17T12:54:54;0.10;;;0.10;;
10839;SDS011;5473;42.706;23.328;2022-10-17T12:57:26;0.10;;;0.10;;
10839;SDS011;5473;42.706;23.328;2022-10-17T12:59:57;0.10;;;0.10;;
10839;SDS011;5473;42.706;23.328;2022-10-17T13:02:29;0.20;;;0.20;;
10839;SDS011;5473;42.706;23.328;2022-10-17T13:05:02;0.10;;;0.10;;
10839;SDS011;5473;42.706;23.328;2022-10-17T13:07:32;0.10;;;0.10;;
10839;SDS011;5473;42.706;23.328;2022-10-17T13:10:01;0.10;;;0.10;;
10839;SDS011;5473;42.706;23.328;2022-10-17T13:12:30;0.20;;;0.20;;
10839;SDS011;5473;42.706;23.328;2022-10-17T13:15:02;0.20;;;0.20;;
10839;SDS011;5473;42.706;23.328;2022-10-17T13:17:34;0.10;;;0.10;;
10839;SDS011;5473;42.706;23.328;2022-10-17T13:20:00;0.20;;;0.20;;
10839;SDS011;5473;42.706;23.328;2022-10-17T13:22:29;0.10;;;0.10;;
10839;SDS011;5473;42.706;23.328;2022-10-17T13:25:07;0.20;;;0.20;;
10839;SDS011;5473;42.706;23.328;2022-10-17T13:27:39;0.20;;;0.20;;
10839;SDS011;5473;42.706;23.328;2022-10-17T13:30:25;0.17;;;0.17;;
10839;SDS011;5473;42.706;23.328;2022-10-17T13:32:55;0.17;;;0.17;;
10839;SDS011;5473;42.706;23.328;2022-10-17T13:35:24;0.20;;;0.20;;
10839;SDS011;5473;42.706;23.328;2022-10-17T13:37:53;0.20;;;0.20;;
10839;SDS011;5473;42.706;23.328;2022-10-17T13:40:22;0.20;;;0.20;;
10839;SDS011;5473;42.706;23.328;2022-10-17T13:42:52;0.10;;;0.10;;
10839;SDS011;5473;42.706;23.328;2022-10-17T13:45:22;0.20;;;0.20;;
10839;SDS011;5473;42.706;23.328;2022-10-17T13:47:53;0.10;;;0.10;;
10839;SDS011;5473;42.706;23.328;2022-10-17T13:50:23;0.20;;;0.20;;
10839;SDS011;5473;42.706;23.328;2022-10-17T13:53:13;0.20;;;0.20;;
10839;SDS011;5473;42.706;23.328;2022-10-17T13:55:53;0.20;;;0.20;;
10839;SDS011;5473;42.706;23.328;2022-10-17T13:58:22;0.20;;;0.20;;
10839;SDS011;5473;42.706;23.328;2022-10-17T14:00:49;0.20;;;0.20;;
10839;SDS011;5473;42.706;23.328;2022-10-17T14:03:19;0.20;;;0.20;;
10839;SDS011;5473;42.706;23.328;2022-10-17T14:06:00;0.20;;;0.20;;
10839;SDS011;5473;42.706;23.328;2022-10-17T14:08:31;0.20;;;0.20;;
10839;SDS011;5473;42.706;23.328;2022-10-17T14:11:00;0.10;;;0.10;;
10839;SDS011;5473;42.706;23.328;2022-10-17T14:13:28;0.20;;;0.20;;
10839;SDS011;5473;42.706;23.328;2022-10-17T14:16:02;0.20;;;0.20;;
10839;SDS011;5473;42.706;23.328;2022-10-17T14:18:31;0.20;;;0.20;;
10839;SDS011;5473;42.706;23.328;2022-10-17T14:21:00;0.23;;;0.23;;
10839;SDS011;5473;42.706;23.328;2022-10-17T14:23:29;0.20;;;0.20;;
10839;SDS011;5473;42.706;23.328;2022-10-17T14:26:04;0.20;;;0.20;;
10839;SDS011;5473;42.706;23.328;2022-10-17T14:28:33;0.23;;;0.23;;
10839;SDS011;5473;42.706;23.328;2022-10-17T14:31:10;0.20;;;0.20;;
10839;SDS011;5473;42.706;23.328;2022-10-17T14:33:45;0.20;;;0.20;;
10839;SDS011;5473;42.706;23.328;2022-10-17T14:36:13;0.20;;;0.20;;
10839;SDS011;5473;42.706;23.328;2022-10-17T14:38:43;0.30;;;0.30;;
10839;SDS011;5473;42.706;23.328;2022-10-17T14:41:17;0.20;;;0.20;;
10839;SDS011;5473;42.706;23.328;2022-10-17T14:43:56;0.20;;;0.20;;
10839;SDS011;5473;42.706;23.328;2022-10-17T14:46:27;0.20;;;0.20;;
10839;SDS011;5473;42.706;23.328;2022-10-17T14:48:58;0.30;;;0.30;;
10839;SDS011;5473;42.706;23.328;2022-10-17T14:51:29;0.20;;;0.20;;
10839;SDS011;5473;42.706;23.328;2022-10-17T14:53:59;0.30;;;0.30;;
10839;SDS011;5473;42.706;23.328;2022-10-17T14:56:33;0.20;;;0.20;;
10839;SDS011;5473;42.706;23.328;2022-10-17T14:59:05;0.30;;;0.30;;
10839;SDS011;5473;42.706;23.328;2022-10-17T15:01:32;0.20;;;0.20;;
10839;SDS011;5473;42.706;23.328;2022-10-17T15:04:01;0.20;;;0.20;;
10839;SDS011;5473;42.706;23.328;2022-10-17T15:06:29;0.20;;;0.20;;
10839;SDS011;5473;42.706;23.328;2022-10-17T15:08:57;0.20;;;0.20;;
10839;SDS011;5473;42.706;23.328;2022-10-17T15:11:24;0.20;;;0.20;;
10839;SDS011;5473;42.706;23.328;2022-10-17T15:13:51;0.30;;;0.30;;
10839;SDS011;5473;42.706;23.328;2022-10-17T15:16:20;0.23;;;0.23;;
10839;SDS011;5473;42.706;23.328;2022-10-17T15:18:49;0.20;;;0.20;;
10839;SDS011;5473;42.706;23.328;2022-10-17T15:21:18;0.20;;;0.20;;
10839;SDS011;5473;42.706;23.328;2022-10-17T15:23:46;0.20;;;0.20;;
10839;SDS011;5473;42.706;23.328;2022-10-17T15:26:14;0.30;;;0.30;;
10839;SDS011;5473;42.706;23.328;2022-10-17T15:28:43;0.20;;;0.20;;
10839;SDS011;5473;42.706;23.328;2022-10-17T15:31:11;0.20;;;0.20;;
10839;SDS011;5473;42.706;23.328;2022-10-17T15:33:40;0.30;;;0.30;;
10839;SDS011;5473;42.706;23.328;2022-10-17T15:36:22;0.30;;;0.30;;
10839;SDS011;5473;42.706;23.328;2022-10-17T15:38:51;0.30;;;0.30;;
10839;SDS011;5473;42.706;23.328;2022-10-17T15:41:20;0.27;;;0.27;;
10839;SDS011;5473;42.706;23.328;2022-10-17T15:43:48;0.30;;;0.30;;
10839;SDS011;5473;42.706;23.328;2022-10-17T15:46:16;0.30;;;0.30;;
10839;SDS011;5473;42.706;23.328;2022-10-17T15:48:45;0.30;;;0.30;;
10839;SDS011;5473;42.706;23.328;2022-10-17T15:51:12;0.30;;;0.30;;
10839;SDS011;5473;42.706;23.328;2022-10-17T15:53:41;0.30;;;0.30;;
10839;SDS011;5473;42.706;23.328;2022-10-17T15:56:09;0.30;;;0.30;;
10839;SDS011;5473;42.706;23.328;2022-10-17T15:58:44;0.30;;;0.30;;
10839;SDS011;5473;42.706;23.328;2022-10-17T16:01:14;0.30;;;0.30;;
10839;SDS011;5473;42.706;23.328;2022-10-17T16:03:46;0.30;;;0.30;;